sensor_id;sensor_type;location;lat;lon;timestamp;temperature;humidity
48589;DHT22;34369;51.174;6.738;2023-02-28T00:00:28;0.30;50.90
48589;DHT22;34369;51.174;6.738;2023-02-28T00:03:00;0.30;50.80
48589;DHT22;34369;51.174;6.738;2023-02-28T00:05:33;0.20;50.80
48589;DHT22;34369;51.174;6.738;2023-02-28T00:08:05;0.20;50.80
48589;DHT22;34369;51.174;6.738;2023-02-28T00:10:38;0.20;50.70
48589;DHT22;34369;51.174;6.738;2023-02-28T00:13:10;0.20;51.10
48589;DHT22;34369;51.174;6.738;2023-02-28T00:15:42;0.20;50.90
48589;DHT22;34369;51.174;6.738;2023-02-28T00:18:15;0.10;50.90
48589;DHT22;34369;51.174;6.738;2023-02-28T00:20:47;0.10;51.10
48589;DHT22;34369;51.174;6.738;2023-02-28T00:23:19;0.00;51.00
48589;DHT22;34369;51.174;6.738;2023-02-28T00:25:53;0.00;50.90
48589;DHT22;34369;51.174;6.738;2023-02-28T00:28:25;0.00;51.00
48589;DHT22;34369;51.174;6.738;2023-02-28T00:30:57;0.00;50.90
48589;DHT22;34369;51.174;6.738;2023-02-28T00:33:30;0.00;51.00
48589;DHT22;34369;51.174;6.738;2023-02-28T00:38:48;-0.10;51.00
48589;DHT22;34369;51.174;6.738;2023-02-28T00:41:24;-0.10;51.90
48589;DHT22;34369;51.174;6.738;2023-02-28T00:44:08;-0.20;51.70
48589;DHT22;34369;51.174;6.738;2023-02-28T00:46:41;-0.20;51.80
48589;DHT22;34369;51.174;6.738;2023-02-28T00:49:17;-0.20;51.60
48589;DHT22;34369;51.174;6.738;2023-02-28T00:51:52;-0.20;51.60
48589;DHT22;34369;51.174;6.738;2023-02-28T00:54:33;-0.20;51.70
48589;DHT22;34369;51.174;6.738;2023-02-28T00:57:07;-0.20;52.00
48589;DHT22;34369;51.174;6.738;2023-02-28T00:59:43;-0.20;51.60
48589;DHT22;34369;51.174;6.738;2023-02-28T01:02:17;-0.20;51.60
48589;DHT22;34369;51.174;6.738;2023-02-28T01:04:52;-0.30;51.60
48589;DHT22;34369;51.174;6.738;2023-02-28T01:07:27;-0.30;51.60
48589;DHT22;34369;51.174;6.738;2023-02-28T01:10:05;-0.30;51.60
48589;DHT22;34369;51.174;6.738;2023-02-28T01:12:41;-0.30;51.70
48589;DHT22;34369;51.174;6.738;2023-02-28T01:15:15;-0.30;51.60
48589;DHT22;34369;51.174;6.738;2023-02-28T01:17:51;-0.30;51.70
48589;DHT22;34369;51.174;6.738;2023-02-28T01:20:33;-0.40;51.70
48589;DHT22;34369;51.174;6.738;2023-02-28T01:23:07;-0.40;51.80
48589;DHT22;34369;51.174;6.738;2023-02-28T01:25:44;-0.40;51.80
48589;DHT22;34369;51.174;6.738;2023-02-28T01:28:18;-0.40;51.90
48589;DHT22;34369;51.174;6.738;2023-02-28T01:30:52;-0.40;51.80
48589;DHT22;34369;51.174;6.738;2023-02-28T01:33:27;-0.40;51.80
48589;DHT22;34369;51.174;6.738;2023-02-28T01:36:01;-0.40;51.80
48589;DHT22;34369;51.174;6.738;2023-02-28T01:38:39;-0.40;52.30
48589;DHT22;34369;51.174;6.738;2023-02-28T01:41:19;-0.50;52.20
48589;DHT22;34369;51.174;6.738;2023-02-28T01:44:05;-0.50;52.40
48589;DHT22;34369;51.174;6.738;2023-02-28T01:46:42;-0.50;52.50
48589;DHT22;34369;51.174;6.738;2023-02-28T01:49:20;-0.50;51.90
48589;DHT22;34369;51.174;6.738;2023-02-28T01:51:56;-0.50;51.90
48589;DHT22;34369;51.174;6.738;2023-02-28T01:54:36;-0.50;51.90
48589;DHT22;34369;51.174;6.738;2023-02-28T01:57:17;-0.50;52.10
48589;DHT22;34369;51.174;6.738;2023-02-28T01:59:56;-0.50;52.10
48589;DHT22;34369;51.174;6.738;2023-02-28T02:02:36;-0.50;52.00
48589;DHT22;34369;51.174;6.738;2023-02-28T02:05:13;-0.60;51.90
48589;DHT22;34369;51.174;6.738;2023-02-28T02:07:51;-0.60;52.00
48589;DHT22;34369;51.174;6.738;2023-02-28T02:10:32;-0.60;52.00
48589;DHT22;34369;51.174;6.738;2023-02-28T02:16:35;-0.60;52.90
48589;DHT22;34369;51.174;6.738;2023-02-28T02:19:37;-0.60;52.50
48589;DHT22;34369;51.174;6.738;2023-02-28T02:22:54;-0.70;52.80
48589;DHT22;34369;51.174;6.738;2023-02-28T02:25:52;-0.70;52.90
48589;DHT22;34369;51.174;6.738;2023-02-28T02:31:57;-0.70;53.20
48589;DHT22;34369;51.174;6.738;2023-02-28T02:35:04;-0.80;52.90
48589;DHT22;34369;51.174;6.738;2023-02-28T02:37:50;-0.80;52.90
48589;DHT22;34369;51.174;6.738;2023-02-28T02:40:35;-0.80;52.50
48589;DHT22;34369;51.174;6.738;2023-02-28T02:43:15;-0.80;52.70
48589;DHT22;34369;51.174;6.738;2023-02-28T02:45:56;-0.80;52.60
48589;DHT22;34369;51.174;6.738;2023-02-28T02:48:34;-0.90;52.50
48589;DHT22;34369;51.174;6.738;2023-02-28T02:51:13;-0.90;52.50
48589;DHT22;34369;51.174;6.738;2023-02-28T02:53:49;-0.90;52.80
48589;DHT22;34369;51.174;6.738;2023-02-28T02:56:28;-0.90;52.50
48589;DHT22;34369;51.174;6.738;2023-02-28T02:59:07;-0.90;52.60
48589;DHT22;34369;51.174;6.738;2023-02-28T03:01:42;-0.90;52.50
48589;DHT22;34369;51.174;6.738;2023-02-28T03:04:18;-1.00;52.50
48589;DHT22;34369;51.174;6.738;2023-02-28T03:06:53;-1.00;52.60
48589;DHT22;34369;51.174;6.738;2023-02-28T03:09:26;-1.00;52.60
48589;DHT22;34369;51.174;6.738;2023-02-28T03:11:59;-1.10;52.50
48589;DHT22;34369;51.174;6.738;2023-02-28T03:14:41;-1.10;52.50
48589;DHT22;34369;51.174;6.738;2023-02-28T03:17:40;-1.10;53.10
48589;DHT22;34369;51.174;6.738;2023-02-28T03:20:31;-1.10;53.50
48589;DHT22;34369;51.174;6.738;2023-02-28T03:23:23;-1.20;53.10
48589;DHT22;34369;51.174;6.738;2023-02-28T03:26:06;-1.20;53.60
48589;DHT22;34369;51.174;6.738;2023-02-28T03:28:47;-1.30;52.70
48589;DHT22;34369;51.174;6.738;2023-02-28T03:31:29;-1.30;52.70
48589;DHT22;34369;51.174;6.738;2023-02-28T03:36:32;-1.40;52.80
48589;DHT22;34369;51.174;6.738;2023-02-28T03:39:17;-1.40;52.90
48589;DHT22;34369;51.174;6.738;2023-02-28T03:41:54;-1.50;52.90
48589;DHT22;34369;51.174;6.738;2023-02-28T03:44:35;-1.50;52.90
48589;DHT22;34369;51.174;6.738;2023-02-28T03:47:12;-1.50;53.40
48589;DHT22;34369;51.174;6.738;2023-02-28T03:49:49;-1.50;53.20
48589;DHT22;34369;51.174;6.738;2023-02-28T03:52:30;-1.60;53.40
48589;DHT22;34369;51.174;6.738;2023-02-28T03:55:11;-1.60;53.80
48589;DHT22;34369;51.174;6.738;2023-02-28T03:57:55;-1.60;53.90
48589;DHT22;34369;51.174;6.738;2023-02-28T04:00:35;-1.60;54.20
48589;DHT22;34369;51.174;6.738;2023-02-28T04:03:12;-1.60;53.70
48589;DHT22;34369;51.174;6.738;2023-02-28T04:05:50;-1.60;53.80
48589;DHT22;34369;51.174;6.738;2023-02-28T04:08:25;-1.60;54.00
48589;DHT22;34369;51.174;6.738;2023-02-28T04:11:01;-1.50;53.90
48589;DHT22;34369;51.174;6.738;2023-02-28T04:13:37;-1.50;53.90
48589;DHT22;34369;51.174;6.738;2023-02-28T04:16:10;-1.50;53.80
48589;DHT22;34369;51.174;6.738;2023-02-28T04:18:43;-1.50;53.70
48589;DHT22;34369;51.174;6.738;2023-02-28T04:21:16;-1.50;53.70
48589;DHT22;34369;51.174;6.738;2023-02-28T04:23:52;-1.50;53.70
48589;DHT22;34369;51.174;6.738;2023-02-28T04:26:27;-1.50;53.70
48589;DHT22;34369;51.174;6.738;2023-02-28T04:29:04;-1.50;53.60
48589;DHT22;34369;51.174;6.738;2023-02-28T04:31:38;-1.50;53.50
48589;DHT22;34369;51.174;6.738;2023-02-28T04:34:10;-1.40;53.50
48589;DHT22;34369;51.174;6.738;2023-02-28T04:36:44;-1.40;53.50
48589;DHT22;34369;51.174;6.738;2023-02-28T04:39:22;-1.40;53.40
48589;DHT22;34369;51.174;6.738;2023-02-28T04:41:56;-1.40;53.50
48589;DHT22;34369;51.174;6.738;2023-02-28T04:44:29;-1.40;53.40
48589;DHT22;34369;51.174;6.738;2023-02-28T04:47:02;-1.40;53.40
48589;DHT22;34369;51.174;6.738;2023-02-28T04:49:37;-1.40;53.40
48589;DHT22;34369;51.174;6.738;2023-02-28T04:52:12;-1.40;53.30
48589;DHT22;34369;51.174;6.738;2023-02-28T04:54:47;-1.40;53.40
48589;DHT22;34369;51.174;6.738;2023-02-28T04:57:20;-1.40;53.40
48589;DHT22;34369;51.174;6.738;2023-02-28T04:59:53;-1.40;53.30
48589;DHT22;34369;51.174;6.738;2023-02-28T05:02:26;-1.40;53.30
48589;DHT22;34369;51.174;6.738;2023-02-28T05:05:01;-1.40;53.20
48589;DHT22;34369;51.174;6.738;2023-02-28T05:07:34;-1.40;53.20
48589;DHT22;34369;51.174;6.738;2023-02-28T05:10:11;-1.40;53.20
48589;DHT22;34369;51.174;6.738;2023-02-28T05:12:45;-1.50;53.40
48589;DHT22;34369;51.174;6.738;2023-02-28T05:15:18;-1.50;53.20
48589;DHT22;34369;51.174;6.738;2023-02-28T05:17:52;-1.50;53.20
48589;DHT22;34369;51.174;6.738;2023-02-28T05:20:25;-1.50;53.20
48589;DHT22;34369;51.174;6.738;2023-02-28T05:23:01;-1.50;53.10
48589;DHT22;34369;51.174;6.738;2023-02-28T05:25:40;-1.50;53.10
48589;DHT22;34369;51.174;6.738;2023-02-28T05:28:15;-1.50;53.20
48589;DHT22;34369;51.174;6.738;2023-02-28T05:30:47;-1.50;53.10
48589;DHT22;34369;51.174;6.738;2023-02-28T05:33:21;-1.50;53.10
48589;DHT22;34369;51.174;6.738;2023-02-28T05:35:55;-1.50;53.10
48589;DHT22;34369;51.174;6.738;2023-02-28T05:38:29;-1.60;53.10
48589;DHT22;34369;51.174;6.738;2023-02-28T05:41:12;-1.60;53.10
48589;DHT22;34369;51.174;6.738;2023-02-28T05:43:49;-1.60;53.50
48589;DHT22;34369;51.174;6.738;2023-02-28T05:46:24;-1.60;53.20
48589;DHT22;34369;51.174;6.738;2023-02-28T05:49:06;-1.70;53.10
48589;DHT22;34369;51.174;6.738;2023-02-28T05:51:42;-1.70;53.10
48589;DHT22;34369;51.174;6.738;2023-02-28T05:54:30;-1.70;53.20
48589;DHT22;34369;51.174;6.738;2023-02-28T05:57:16;-1.70;53.60
48589;DHT22;34369;51.174;6.738;2023-02-28T05:59:55;-1.70;53.60
48589;DHT22;34369;51.174;6.738;2023-02-28T06:06:37;-1.70;53.70
48589;DHT22;34369;51.174;6.738;2023-02-28T06:17:06;-1.70;53.60
48589;DHT22;34369;51.174;6.738;2023-02-28T06:22:34;-1.80;53.20
48589;DHT22;34369;51.174;6.738;2023-02-28T06:25:07;-1.90;53.00
48589;DHT22;34369;51.174;6.738;2023-02-28T06:27:40;-1.90;53.00
48589;DHT22;34369;51.174;6.738;2023-02-28T06:30:13;-1.90;53.00
48589;DHT22;34369;51.174;6.738;2023-02-28T06:32:45;-1.90;53.00
48589;DHT22;34369;51.174;6.738;2023-02-28T06:35:19;-1.90;53.00
48589;DHT22;34369;51.174;6.738;2023-02-28T06:37:53;-1.90;53.00
48589;DHT22;34369;51.174;6.738;2023-02-28T06:40:25;-1.90;53.00
48589;DHT22;34369;51.174;6.738;2023-02-28T06:42:57;-1.90;53.00
48589;DHT22;34369;51.174;6.738;2023-02-28T06:45:29;-1.80;53.10
48589;DHT22;34369;51.174;6.738;2023-02-28T06:48:01;-1.80;53.00
48589;DHT22;34369;51.174;6.738;2023-02-28T06:50:33;-1.70;53.00
48589;DHT22;34369;51.174;6.738;2023-02-28T06:53:06;-1.70;53.00
48589;DHT22;34369;51.174;6.738;2023-02-28T06:55:38;-1.70;53.10
48589;DHT22;34369;51.174;6.738;2023-02-28T06:58:10;-1.70;53.10
48589;DHT22;34369;51.174;6.738;2023-02-28T07:00:51;-1.70;53.00
48589;DHT22;34369;51.174;6.738;2023-02-28T07:03:23;-1.70;53.20
48589;DHT22;34369;51.174;6.738;2023-02-28T07:05:55;-1.70;53.00
48589;DHT22;34369;51.174;6.738;2023-02-28T07:08:29;-1.60;53.10
48589;DHT22;34369;51.174;6.738;2023-02-28T07:11:02;-1.50;53.10
48589;DHT22;34369;51.174;6.738;2023-02-28T07:13:35;-1.50;53.10
48589;DHT22;34369;51.174;6.738;2023-02-28T07:16:11;-1.50;53.10
48589;DHT22;34369;51.174;6.738;2023-02-28T07:18:44;-1.40;53.70
48589;DHT22;34369;51.174;6.738;2023-02-28T07:21:16;-1.20;54.60
48589;DHT22;34369;51.174;6.738;2023-02-28T07:23:49;-0.90;55.30
48589;DHT22;34369;51.174;6.738;2023-02-28T07:26:21;-0.50;56.00
48589;DHT22;34369;51.174;6.738;2023-02-28T07:28:53;0.00;56.20
48589;DHT22;34369;51.174;6.738;2023-02-28T07:31:25;0.50;55.40
48589;DHT22;34369;51.174;6.738;2023-02-28T07:33:57;1.00;54.80
48589;DHT22;34369;51.174;6.738;2023-02-28T07:36:29;1.50;54.00
48589;DHT22;34369;51.174;6.738;2023-02-28T07:39:02;1.90;53.70
48589;DHT22;34369;51.174;6.738;2023-02-28T07:41:35;2.30;52.50
48589;DHT22;34369;51.174;6.738;2023-02-28T07:44:13;2.60;52.10
48589;DHT22;34369;51.174;6.738;2023-02-28T07:46:45;3.00;51.10
48589;DHT22;34369;51.174;6.738;2023-02-28T07:49:17;3.30;51.00
48589;DHT22;34369;51.174;6.738;2023-02-28T07:51:49;3.50;50.40
48589;DHT22;34369;51.174;6.738;2023-02-28T07:54:22;3.80;49.10
48589;DHT22;34369;51.174;6.738;2023-02-28T07:56:54;4.00;48.40
48589;DHT22;34369;51.174;6.738;2023-02-28T07:59:26;4.10;48.00
48589;DHT22;34369;51.174;6.738;2023-02-28T08:01:58;4.30;47.50
48589;DHT22;34369;51.174;6.738;2023-02-28T08:04:31;4.50;47.20
48589;DHT22;34369;51.174;6.738;2023-02-28T08:07:03;4.60;47.00
48589;DHT22;34369;51.174;6.738;2023-02-28T08:09:37;4.80;46.60
48589;DHT22;34369;51.174;6.738;2023-02-28T08:12:09;5.10;46.60
48589;DHT22;34369;51.174;6.738;2023-02-28T08:14:42;5.30;46.40
48589;DHT22;34369;51.174;6.738;2023-02-28T08:17:14;5.60;45.50
48589;DHT22;34369;51.174;6.738;2023-02-28T08:19:46;5.90;45.10
48589;DHT22;34369;51.174;6.738;2023-02-28T08:22:18;6.10;44.90
48589;DHT22;34369;51.174;6.738;2023-02-28T08:24:51;6.50;44.00
48589;DHT22;34369;51.174;6.738;2023-02-28T08:27:23;6.70;43.10
48589;DHT22;34369;51.174;6.738;2023-02-28T08:29:54;7.00;42.40
48589;DHT22;34369;51.174;6.738;2023-02-28T08:32:26;7.10;41.80
48589;DHT22;34369;51.174;6.738;2023-02-28T08:34:58;7.10;41.30
48589;DHT22;34369;51.174;6.738;2023-02-28T08:37:30;7.20;41.40
48589;DHT22;34369;51.174;6.738;2023-02-28T08:40:04;7.30;41.10
48589;DHT22;34369;51.174;6.738;2023-02-28T08:42:37;7.40;40.40
48589;DHT22;34369;51.174;6.738;2023-02-28T08:45:09;7.50;40.60
48589;DHT22;34369;51.174;6.738;2023-02-28T08:47:42;7.60;40.90
48589;DHT22;34369;51.174;6.738;2023-02-28T08:50:13;7.70;40.50
48589;DHT22;34369;51.174;6.738;2023-02-28T08:52:46;7.90;40.40
48589;DHT22;34369;51.174;6.738;2023-02-28T08:55:20;8.20;40.00
48589;DHT22;34369;51.174;6.738;2023-02-28T08:57:51;8.40;40.30
48589;DHT22;34369;51.174;6.738;2023-02-28T09:00:25;8.70;39.50
48589;DHT22;34369;51.174;6.738;2023-02-28T09:02:57;9.00;39.90
48589;DHT22;34369;51.174;6.738;2023-02-28T09:05:29;9.20;39.50
48589;DHT22;34369;51.174;6.738;2023-02-28T09:08:00;9.50;39.00
48589;DHT22;34369;51.174;6.738;2023-02-28T09:10:34;9.80;39.30
48589;DHT22;34369;51.174;6.738;2023-02-28T09:13:06;10.00;38.70
48589;DHT22;34369;51.174;6.738;2023-02-28T09:15:38;10.30;38.40
48589;DHT22;34369;51.174;6.738;2023-02-28T09:18:10;10.60;38.00
48589;DHT22;34369;51.174;6.738;2023-02-28T09:20:43;10.80;37.20
48589;DHT22;34369;51.174;6.738;2023-02-28T09:23:15;10.90;36.50
48589;DHT22;34369;51.174;6.738;2023-02-28T09:25:50;11.00;35.50
48589;DHT22;34369;51.174;6.738;2023-02-28T09:28:23;10.90;35.00
48589;DHT22;34369;51.174;6.738;2023-02-28T09:30:55;10.80;34.30
48589;DHT22;34369;51.174;6.738;2023-02-28T09:33:27;10.60;34.00
48589;DHT22;34369;51.174;6.738;2023-02-28T09:36:00;10.40;34.00
48589;DHT22;34369;51.174;6.738;2023-02-28T09:38:34;10.10;33.40
48589;DHT22;34369;51.174;6.738;2023-02-28T09:41:13;9.90;33.40
48589;DHT22;34369;51.174;6.738;2023-02-28T09:43:49;9.60;32.50
48589;DHT22;34369;51.174;6.738;2023-02-28T09:46:32;9.20;33.00
48589;DHT22;34369;51.174;6.738;2023-02-28T09:49:07;8.90;33.10
48589;DHT22;34369;51.174;6.738;2023-02-28T09:51:48;8.60;33.50
48589;DHT22;34369;51.174;6.738;2023-02-28T09:54:23;8.40;33.50
48589;DHT22;34369;51.174;6.738;2023-02-28T09:57:01;8.20;33.90
48589;DHT22;34369;51.174;6.738;2023-02-28T09:59:44;8.10;33.60
48589;DHT22;34369;51.174;6.738;2023-02-28T10:03:03;7.90;33.60
48589;DHT22;34369;51.174;6.738;2023-02-28T10:05:41;7.60;33.30
48589;DHT22;34369;51.174;6.738;2023-02-28T10:08:16;7.50;34.30
48589;DHT22;34369;51.174;6.738;2023-02-28T10:10:53;7.20;34.00
48589;DHT22;34369;51.174;6.738;2023-02-28T10:13:33;7.00;34.30
48589;DHT22;34369;51.174;6.738;2023-02-28T10:16:10;6.70;33.60
48589;DHT22;34369;51.174;6.738;2023-02-28T10:18:46;6.50;33.70
48589;DHT22;34369;51.174;6.738;2023-02-28T10:21:23;6.30;34.10
48589;DHT22;34369;51.174;6.738;2023-02-28T10:24:03;6.00;34.10
48589;DHT22;34369;51.174;6.738;2023-02-28T10:26:37;5.70;34.10
48589;DHT22;34369;51.174;6.738;2023-02-28T10:29:10;5.60;34.70
48589;DHT22;34369;51.174;6.738;2023-02-28T10:31:43;5.50;34.90
48589;DHT22;34369;51.174;6.738;2023-02-28T10:34:14;5.40;35.10
48589;DHT22;34369;51.174;6.738;2023-02-28T10:36:48;5.50;35.50
48589;DHT22;34369;51.174;6.738;2023-02-28T10:39:38;5.50;35.40
48589;DHT22;34369;51.174;6.738;2023-02-28T10:42:23;5.70;34.90
48589;DHT22;34369;51.174;6.738;2023-02-28T10:45:10;5.70;35.20
48589;DHT22;34369;51.174;6.738;2023-02-28T10:47:53;5.70;35.10
48589;DHT22;34369;51.174;6.738;2023-02-28T10:50:30;5.70;35.10
48589;DHT22;34369;51.174;6.738;2023-02-28T10:53:21;5.70;35.60
48589;DHT22;34369;51.174;6.738;2023-02-28T10:56:01;5.70;35.90
48589;DHT22;34369;51.174;6.738;2023-02-28T10:58:46;5.70;35.50
48589;DHT22;34369;51.174;6.738;2023-02-28T11:01:23;5.70;35.50
48589;DHT22;34369;51.174;6.738;2023-02-28T11:03:56;5.80;35.40
48589;DHT22;34369;51.174;6.738;2023-02-28T11:06:30;5.80;35.90
48589;DHT22;34369;51.174;6.738;2023-02-28T11:09:06;5.80;35.30
48589;DHT22;34369;51.174;6.738;2023-02-28T11:11:49;5.90;35.50
48589;DHT22;34369;51.174;6.738;2023-02-28T11:14:23;5.80;35.40
48589;DHT22;34369;51.174;6.738;2023-02-28T11:17:14;5.80;35.70
48589;DHT22;34369;51.174;6.738;2023-02-28T11:19:52;5.80;35.40
48589;DHT22;34369;51.174;6.738;2023-02-28T11:22:27;5.90;36.00
48589;DHT22;34369;51.174;6.738;2023-02-28T11:25:04;6.00;35.90
48589;DHT22;34369;51.174;6.738;2023-02-28T11:27:46;6.20;36.50
48589;DHT22;34369;51.174;6.738;2023-02-28T11:30:30;6.40;36.20
48589;DHT22;34369;51.174;6.738;2023-02-28T11:33:27;6.60;35.70
48589;DHT22;34369;51.174;6.738;2023-02-28T11:36:03;6.80;35.70
48589;DHT22;34369;51.174;6.738;2023-02-28T11:38:40;6.90;35.70
48589;DHT22;34369;51.174;6.738;2023-02-28T11:41:28;7.00;35.20
48589;DHT22;34369;51.174;6.738;2023-02-28T11:44:23;7.10;34.70
48589;DHT22;34369;51.174;6.738;2023-02-28T11:47:04;7.10;35.30
48589;DHT22;34369;51.174;6.738;2023-02-28T11:49:48;7.10;35.10
48589;DHT22;34369;51.174;6.738;2023-02-28T11:52:35;7.10;35.20
48589;DHT22;34369;51.174;6.738;2023-02-28T11:55:16;7.10;35.10
48589;DHT22;34369;51.174;6.738;2023-02-28T11:57:59;7.20;35.50
48589;DHT22;34369;51.174;6.738;2023-02-28T12:00:44;7.30;35.30
48589;DHT22;34369;51.174;6.738;2023-02-28T12:03:35;7.50;35.40
48589;DHT22;34369;51.174;6.738;2023-02-28T12:06:22;7.70;35.60
48589;DHT22;34369;51.174;6.738;2023-02-28T12:09:04;7.80;35.20
48589;DHT22;34369;51.174;6.738;2023-02-28T12:11:51;8.00;34.70
48589;DHT22;34369;51.174;6.738;2023-02-28T12:14:43;8.10;34.60
48589;DHT22;34369;51.174;6.738;2023-02-28T12:17:32;8.20;34.40
48589;DHT22;34369;51.174;6.738;2023-02-28T12:20:21;8.30;34.80
48589;DHT22;34369;51.174;6.738;2023-02-28T12:23:10;8.30;34.50
48589;DHT22;34369;51.174;6.738;2023-02-28T12:26:02;8.40;34.30
48589;DHT22;34369;51.174;6.738;2023-02-28T12:28:42;8.40;34.00
48589;DHT22;34369;51.174;6.738;2023-02-28T12:31:20;8.40;34.30
48589;DHT22;34369;51.174;6.738;2023-02-28T12:33:59;8.50;34.60
48589;DHT22;34369;51.174;6.738;2023-02-28T12:36:34;8.60;34.80
48589;DHT22;34369;51.174;6.738;2023-02-28T12:39:11;8.80;34.80
48589;DHT22;34369;51.174;6.738;2023-02-28T12:41:50;9.00;34.40
48589;DHT22;34369;51.174;6.738;2023-02-28T12:44:28;9.20;34.00
48589;DHT22;34369;51.174;6.738;2023-02-28T12:47:05;9.40;33.60
48589;DHT22;34369;51.174;6.738;2023-02-28T12:49:46;9.40;33.60
48589;DHT22;34369;51.174;6.738;2023-02-28T12:52:25;9.50;33.60
48589;DHT22;34369;51.174;6.738;2023-02-28T12:55:11;9.50;33.60
48589;DHT22;34369;51.174;6.738;2023-02-28T12:57:50;9.50;33.40
48589;DHT22;34369;51.174;6.738;2023-02-28T13:00:30;9.60;33.50
48589;DHT22;34369;51.174;6.738;2023-02-28T13:06:27;9.80;33.70
48589;DHT22;34369;51.174;6.738;2023-02-28T13:09:09;10.00;33.70
48589;DHT22;34369;51.174;6.738;2023-02-28T13:11:45;10.20;34.10
48589;DHT22;34369;51.174;6.738;2023-02-28T13:14:22;10.50;34.50
48589;DHT22;34369;51.174;6.738;2023-02-28T13:16:59;10.80;34.60
48589;DHT22;34369;51.174;6.738;2023-02-28T13:19:35;11.20;34.80
48589;DHT22;34369;51.174;6.738;2023-02-28T13:22:18;11.60;34.60
48589;DHT22;34369;51.174;6.738;2023-02-28T13:24:52;12.00;33.70
48589;DHT22;34369;51.174;6.738;2023-02-28T13:27:37;12.40;34.10
48589;DHT22;34369;51.174;6.738;2023-02-28T13:33:34;13.30;32.70
48589;DHT22;34369;51.174;6.738;2023-02-28T13:36:22;13.60;33.40
48589;DHT22;34369;51.174;6.738;2023-02-28T13:38:57;13.90;33.20
48589;DHT22;34369;51.174;6.738;2023-02-28T13:41:59;14.30;33.00
48589;DHT22;34369;51.174;6.738;2023-02-28T13:45:21;14.60;31.80
48589;DHT22;34369;51.174;6.738;2023-02-28T13:48:01;14.90;31.80
48589;DHT22;34369;51.174;6.738;2023-02-28T13:50:36;15.10;31.80
48589;DHT22;34369;51.174;6.738;2023-02-28T13:53:27;15.40;31.80
48589;DHT22;34369;51.174;6.738;2023-02-28T13:56:34;15.60;30.20
48589;DHT22;34369;51.174;6.738;2023-02-28T13:59:21;15.70;30.10
48589;DHT22;34369;51.174;6.738;2023-02-28T14:02:36;15.70;30.40
48589;DHT22;34369;51.174;6.738;2023-02-28T14:05:17;15.80;30.20
48589;DHT22;34369;51.174;6.738;2023-02-28T14:07:54;15.80;30.50
48589;DHT22;34369;51.174;6.738;2023-02-28T14:10:29;15.80;30.40
48589;DHT22;34369;51.174;6.738;2023-02-28T14:13:12;15.80;30.00
48589;DHT22;34369;51.174;6.738;2023-02-28T14:15:48;15.80;29.00
48589;DHT22;34369;51.174;6.738;2023-02-28T14:18:30;15.80;29.80
48589;DHT22;34369;51.174;6.738;2023-02-28T14:21:11;15.70;29.90
48589;DHT22;34369;51.174;6.738;2023-02-28T14:30:37;15.50;29.60
48589;DHT22;34369;51.174;6.738;2023-02-28T14:33:23;15.30;29.30
48589;DHT22;34369;51.174;6.738;2023-02-28T14:36:07;15.30;29.30
48589;DHT22;34369;51.174;6.738;2023-02-28T14:38:45;15.10;29.60
48589;DHT22;34369;51.174;6.738;2023-02-28T14:41:23;15.00;29.40
48589;DHT22;34369;51.174;6.738;2023-02-28T14:44:00;14.90;29.30
48589;DHT22;34369;51.174;6.738;2023-02-28T14:46:36;14.70;29.50
48589;DHT22;34369;51.174;6.738;2023-02-28T14:49:24;14.40;29.20
48589;DHT22;34369;51.174;6.738;2023-02-28T14:52:05;14.10;29.20
48589;DHT22;34369;51.174;6.738;2023-02-28T14:54:40;13.90;29.20
48589;DHT22;34369;51.174;6.738;2023-02-28T14:57:22;13.60;29.70
48589;DHT22;34369;51.174;6.738;2023-02-28T15:00:00;13.40;29.50
48589;DHT22;34369;51.174;6.738;2023-02-28T15:02:35;13.10;29.70
48589;DHT22;34369;51.174;6.738;2023-02-28T15:05:22;12.90;29.90
48589;DHT22;34369;51.174;6.738;2023-02-28T15:08:06;12.80;30.00
48589;DHT22;34369;51.174;6.738;2023-02-28T15:10:44;12.60;30.10
48589;DHT22;34369;51.174;6.738;2023-02-28T15:13:16;12.40;30.30
48589;DHT22;34369;51.174;6.738;2023-02-28T15:15:52;12.30;30.40
48589;DHT22;34369;51.174;6.738;2023-02-28T15:18:30;12.20;30.50
48589;DHT22;34369;51.174;6.738;2023-02-28T15:21:07;12.00;30.40
48589;DHT22;34369;51.174;6.738;2023-02-28T15:23:45;11.90;30.80
48589;DHT22;34369;51.174;6.738;2023-02-28T15:26:20;11.70;30.90
48589;DHT22;34369;51.174;6.738;2023-02-28T15:28:59;11.50;31.00
48589;DHT22;34369;51.174;6.738;2023-02-28T15:31:40;11.40;30.90
48589;DHT22;34369;51.174;6.738;2023-02-28T15:34:18;11.20;31.00
48589;DHT22;34369;51.174;6.738;2023-02-28T15:36:53;11.00;31.10
48589;DHT22;34369;51.174;6.738;2023-02-28T15:39:26;10.80;31.40
48589;DHT22;34369;51.174;6.738;2023-02-28T15:42:12;10.60;31.50
48589;DHT22;34369;51.174;6.738;2023-02-28T15:44:48;10.40;31.40
48589;DHT22;34369;51.174;6.738;2023-02-28T15:47:22;10.00;31.50
48589;DHT22;34369;51.174;6.738;2023-02-28T15:49:58;9.90;31.70
48589;DHT22;34369;51.174;6.738;2023-02-28T15:52:39;9.60;31.90
48589;DHT22;34369;51.174;6.738;2023-02-28T15:55:19;9.40;32.30
48589;DHT22;34369;51.174;6.738;2023-02-28T15:57:54;9.20;32.60
48589;DHT22;34369;51.174;6.738;2023-02-28T16:00:30;8.90;32.90
48589;DHT22;34369;51.174;6.738;2023-02-28T16:03:24;8.70;33.00
48589;DHT22;34369;51.174;6.738;2023-02-28T16:06:35;8.50;33.40
48589;DHT22;34369;51.174;6.738;2023-02-28T16:09:12;8.20;33.40
48589;DHT22;34369;51.174;6.738;2023-02-28T16:11:47;8.10;33.70
48589;DHT22;34369;51.174;6.738;2023-02-28T16:14:21;7.90;33.60
48589;DHT22;34369;51.174;6.738;2023-02-28T16:16:57;7.80;34.00
48589;DHT22;34369;51.174;6.738;2023-02-28T16:19:35;7.60;33.90
48589;DHT22;34369;51.174;6.738;2023-02-28T16:22:08;7.50;34.20
48589;DHT22;34369;51.174;6.738;2023-02-28T16:24:41;7.30;34.30
48589;DHT22;34369;51.174;6.738;2023-02-28T16:27:18;7.20;34.50
48589;DHT22;34369;51.174;6.738;2023-02-28T16:29:51;7.00;34.70
48589;DHT22;34369;51.174;6.738;2023-02-28T16:32:24;6.90;34.80
48589;DHT22;34369;51.174;6.738;2023-02-28T16:34:56;6.80;35.10
48589;DHT22;34369;51.174;6.738;2023-02-28T16:37:28;6.70;35.30
48589;DHT22;34369;51.174;6.738;2023-02-28T16:40:02;6.50;35.50
48589;DHT22;34369;51.174;6.738;2023-02-28T16:42:34;6.40;35.70
48589;DHT22;34369;51.174;6.738;2023-02-28T16:45:08;6.30;35.90
48589;DHT22;34369;51.174;6.738;2023-02-28T16:47:46;6.10;36.00
48589;DHT22;34369;51.174;6.738;2023-02-28T16:50:20;6.00;36.30
48589;DHT22;34369;51.174;6.738;2023-02-28T16:52:53;5.90;36.50
48589;DHT22;34369;51.174;6.738;2023-02-28T16:55:26;5.80;36.70
48589;DHT22;34369;51.174;6.738;2023-02-28T16:58:00;5.70;36.80
48589;DHT22;34369;51.174;6.738;2023-02-28T17:00:33;5.60;37.00
48589;DHT22;34369;51.174;6.738;2023-02-28T17:03:05;5.50;37.10
48589;DHT22;34369;51.174;6.738;2023-02-28T17:05:38;5.30;37.30
48589;DHT22;34369;51.174;6.738;2023-02-28T17:08:11;5.30;37.50
48589;DHT22;34369;51.174;6.738;2023-02-28T17:10:44;5.10;37.80
48589;DHT22;34369;51.174;6.738;2023-02-28T17:13:16;5.00;37.90
48589;DHT22;34369;51.174;6.738;2023-02-28T17:15:48;4.90;38.00
48589;DHT22;34369;51.174;6.738;2023-02-28T17:18:20;4.80;38.20
48589;DHT22;34369;51.174;6.738;2023-02-28T17:20:52;4.70;38.30
48589;DHT22;34369;51.174;6.738;2023-02-28T17:23:24;4.60;38.50